sensor_id;sensor_type;location;lat;lon;timestamp;P1;durP1;ratioP1;P2;durP2;ratioP2
3085;SDS011;52812;48.960;9.108;2024-03-25T00:00:18;5.20;;;2.90;;
3085;SDS011;52812;48.960;9.108;2024-03-25T00:02:45;5.17;;;3.53;;
3085;SDS011;52812;48.960;9.108;2024-03-25T00:05:11;5.43;;;2.90;;
3085;SDS011;52812;48.960;9.108;2024-03-25T00:07:39;5.00;;;3.10;;
3085;SDS011;52812;48.960;9.108;2024-03-25T00:10:05;4.63;;;2.80;;
3085;SDS011;52812;48.960;9.108;2024-03-25T00:12:33;6.90;;;3.57;;
3085;SDS011;52812;48.960;9.108;2024-03-25T00:14:59;6.80;;;3.07;;
3085;SDS011;52812;48.960;9.108;2024-03-25T00:17:25;9.93;;;3.37;;
3085;SDS011;52812;48.960;9.108;2024-03-25T00:19:51;5.60;;;3.13;;
3085;SDS011;52812;48.960;9.108;2024-03-25T00:22:17;4.40;;;3.10;;
3085;SDS011;52812;48.960;9.108;2024-03-25T00:24:44;5.27;;;3.17;;
3085;SDS011;52812;48.960;9.108;2024-03-25T00:27:10;6.50;;;3.33;;
3085;SDS011;52812;48.960;9.108;2024-03-25T00:29:36;5.40;;;3.30;;
3085;SDS011;52812;48.960;9.108;2024-03-25T00:32:01;6.83;;;3.07;;
3085;SDS011;52812;48.960;9.108;2024-03-25T00:34:27;3.60;;;2.67;;
3085;SDS011;52812;48.960;9.108;2024-03-25T00:36:53;4.53;;;2.90;;
3085;SDS011;52812;48.960;9.108;2024-03-25T00:39:18;4.97;;;3.13;;
3085;SDS011;52812;48.960;9.108;2024-03-25T00:41:44;5.00;;;2.83;;
3085;SDS011;52812;48.960;9.108;2024-03-25T00:44:10;4.93;;;2.90;;
3085;SDS011;52812;48.960;9.108;2024-03-25T00:46:36;6.07;;;3.20;;
3085;SDS011;52812;48.960;9.108;2024-03-25T00:49:02;6.80;;;3.37;;
3085;SDS011;52812;48.960;9.108;2024-03-25T00:51:27;3.83;;;2.77;;
3085;SDS011;52812;48.960;9.108;2024-03-25T00:53:53;6.10;;;2.70;;
3085;SDS011;52812;48.960;9.108;2024-03-25T00:56:19;7.33;;;3.30;;
3085;SDS011;52812;48.960;9.108;2024-03-25T00:58:44;6.27;;;2.93;;
3085;SDS011;52812;48.960;9.108;2024-03-25T01:01:11;5.03;;;3.30;;
3085;SDS011;52812;48.960;9.108;2024-03-25T01:03:37;9.40;;;3.43;;
3085;SDS011;52812;48.960;9.108;2024-03-25T01:06:02;5.50;;;3.47;;
3085;SDS011;52812;48.960;9.108;2024-03-25T01:08:29;5.60;;;3.23;;
3085;SDS011;52812;48.960;9.108;2024-03-25T01:10:55;3.77;;;2.90;;
3085;SDS011;52812;48.960;9.108;2024-03-25T01:13:20;7.00;;;3.00;;
3085;SDS011;52812;48.960;9.108;2024-03-25T01:15:46;5.73;;;3.20;;
3085;SDS011;52812;48.960;9.108;2024-03-25T01:18:12;4.13;;;3.10;;
3085;SDS011;52812;48.960;9.108;2024-03-25T01:20:38;5.50;;;3.20;;
3085;SDS011;52812;48.960;9.108;2024-03-25T01:23:04;7.63;;;3.73;;
3085;SDS011;52812;48.960;9.108;2024-03-25T01:25:30;3.73;;;3.03;;
3085;SDS011;52812;48.960;9.108;2024-03-25T01:27:56;5.43;;;3.20;;
3085;SDS011;52812;48.960;9.108;2024-03-25T01:30:21;4.87;;;3.10;;
3085;SDS011;52812;48.960;9.108;2024-03-25T01:32:47;6.03;;;3.53;;
3085;SDS011;52812;48.960;9.108;2024-03-25T01:35:13;7.87;;;3.13;;
3085;SDS011;52812;48.960;9.108;2024-03-25T01:37:40;6.03;;;3.13;;
3085;SDS011;52812;48.960;9.108;2024-03-25T01:40:07;4.77;;;2.83;;
3085;SDS011;52812;48.960;9.108;2024-03-25T01:42:35;4.30;;;3.00;;
3085;SDS011;52812;48.960;9.108;2024-03-25T01:45:01;4.33;;;3.07;;
3085;SDS011;52812;48.960;9.108;2024-03-25T01:47:28;5.27;;;3.17;;
3085;SDS011;52812;48.960;9.108;2024-03-25T01:49:56;5.93;;;3.50;;
3085;SDS011;52812;48.960;9.108;2024-03-25T01:52:22;5.37;;;3.27;;
3085;SDS011;52812;48.960;9.108;2024-03-25T01:54:50;5.70;;;3.40;;
3085;SDS011;52812;48.960;9.108;2024-03-25T01:57:17;6.30;;;3.10;;
3085;SDS011;52812;48.960;9.108;2024-03-25T01:59:43;5.70;;;3.10;;
3085;SDS011;52812;48.960;9.108;2024-03-25T02:02:09;5.10;;;2.90;;
3085;SDS011;52812;48.960;9.108;2024-03-25T02:04:36;5.30;;;3.33;;
3085;SDS011;52812;48.960;9.108;2024-03-25T02:07:03;8.57;;;3.37;;
3085;SDS011;52812;48.960;9.108;2024-03-25T02:09:30;6.97;;;3.60;;
3085;SDS011;52812;48.960;9.108;2024-03-25T02:11:56;9.53;;;3.37;;
3085;SDS011;52812;48.960;9.108;2024-03-25T02:14:22;6.23;;;3.40;;
3085;SDS011;52812;48.960;9.108;2024-03-25T02:16:48;4.00;;;3.00;;
3085;SDS011;52812;48.960;9.108;2024-03-25T02:19:17;5.50;;;3.13;;
3085;SDS011;52812;48.960;9.108;2024-03-25T02:21:43;3.80;;;3.13;;
3085;SDS011;52812;48.960;9.108;2024-03-25T02:24:09;6.93;;;4.03;;
3085;SDS011;52812;48.960;9.108;2024-03-25T02:26:37;5.77;;;3.20;;
3085;SDS011;52812;48.960;9.108;2024-03-25T02:29:03;3.77;;;3.20;;
3085;SDS011;52812;48.960;9.108;2024-03-25T02:31:29;7.30;;;3.40;;
3085;SDS011;52812;48.960;9.108;2024-03-25T02:33:54;6.23;;;4.10;;
3085;SDS011;52812;48.960;9.108;2024-03-25T02:36:20;6.20;;;3.30;;
3085;SDS011;52812;48.960;9.108;2024-03-25T02:38:46;5.40;;;4.00;;
3085;SDS011;52812;48.960;9.108;2024-03-25T02:41:12;5.30;;;3.30;;
3085;SDS011;52812;48.960;9.108;2024-03-25T02:43:38;5.30;;;3.30;;
3085;SDS011;52812;48.960;9.108;2024-03-25T02:46:04;4.33;;;3.10;;
3085;SDS011;52812;48.960;9.108;2024-03-25T02:48:29;6.53;;;3.00;;
3085;SDS011;52812;48.960;9.108;2024-03-25T02:50:55;5.50;;;3.40;;
3085;SDS011;52812;48.960;9.108;2024-03-25T02:53:20;5.67;;;3.43;;
3085;SDS011;52812;48.960;9.108;2024-03-25T02:55:46;8.40;;;3.93;;
3085;SDS011;52812;48.960;9.108;2024-03-25T02:58:11;6.30;;;3.03;;
3085;SDS011;52812;48.960;9.108;2024-03-25T03:00:37;5.70;;;3.27;;
3085;SDS011;52812;48.960;9.108;2024-03-25T03:03:03;6.93;;;3.40;;
3085;SDS011;52812;48.960;9.108;2024-03-25T03:05:28;5.00;;;3.20;;
3085;SDS011;52812;48.960;9.108;2024-03-25T03:07:54;4.43;;;3.00;;
3085;SDS011;52812;48.960;9.108;2024-03-25T03:10:20;4.53;;;3.47;;
3085;SDS011;52812;48.960;9.108;2024-03-25T03:12:45;4.63;;;3.53;;
3085;SDS011;52812;48.960;9.108;2024-03-25T03:15:11;9.43;;;3.53;;
3085;SDS011;52812;48.960;9.108;2024-03-25T03:17:37;5.00;;;3.30;;
3085;SDS011;52812;48.960;9.108;2024-03-25T03:20:02;6.03;;;3.30;;
3085;SDS011;52812;48.960;9.108;2024-03-25T03:22:28;4.97;;;2.90;;
3085;SDS011;52812;48.960;9.108;2024-03-25T03:24:54;5.10;;;2.77;;
3085;SDS011;52812;48.960;9.108;2024-03-25T03:27:19;7.23;;;4.10;;
3085;SDS011;52812;48.960;9.108;2024-03-25T03:29:45;6.10;;;3.60;;
3085;SDS011;52812;48.960;9.108;2024-03-25T03:32:10;5.93;;;3.50;;
3085;SDS011;52812;48.960;9.108;2024-03-25T03:34:36;6.50;;;3.60;;
3085;SDS011;52812;48.960;9.108;2024-03-25T03:37:01;7.70;;;4.37;;
3085;SDS011;52812;48.960;9.108;2024-03-25T03:39:27;4.90;;;3.47;;
3085;SDS011;52812;48.960;9.108;2024-03-25T03:41:53;7.20;;;3.33;;
3085;SDS011;52812;48.960;9.108;2024-03-25T03:44:18;6.50;;;3.60;;
3085;SDS011;52812;48.960;9.108;2024-03-25T03:46:44;7.80;;;3.50;;
3085;SDS011;52812;48.960;9.108;2024-03-25T03:49:10;4.83;;;3.10;;
3085;SDS011;52812;48.960;9.108;2024-03-25T03:51:35;6.70;;;3.30;;
3085;SDS011;52812;48.960;9.108;2024-03-25T03:54:01;6.63;;;2.87;;
3085;SDS011;52812;48.960;9.108;2024-03-25T03:56:26;4.97;;;3.20;;
3085;SDS011;52812;48.960;9.108;2024-03-25T03:58:52;3.50;;;3.20;;
3085;SDS011;52812;48.960;9.108;2024-03-25T04:01:18;3.77;;;2.93;;
3085;SDS011;52812;48.960;9.108;2024-03-25T04:03:44;6.83;;;3.50;;
3085;SDS011;52812;48.960;9.108;2024-03-25T04:06:10;5.10;;;3.27;;
3085;SDS011;52812;48.960;9.108;2024-03-25T04:08:37;3.77;;;2.90;;
3085;SDS011;52812;48.960;9.108;2024-03-25T04:11:06;4.90;;;3.33;;
3085;SDS011;52812;48.960;9.108;2024-03-25T04:13:33;3.63;;;3.27;;
3085;SDS011;52812;48.960;9.108;2024-03-25T04:16:02;7.50;;;4.40;;
3085;SDS011;52812;48.960;9.108;2024-03-25T04:18:29;5.00;;;3.07;;
3085;SDS011;52812;48.960;9.108;2024-03-25T04:20:55;6.13;;;3.40;;
3085;SDS011;52812;48.960;9.108;2024-03-25T04:23:21;8.83;;;3.57;;
3085;SDS011;52812;48.960;9.108;2024-03-25T04:25:47;10.17;;;3.90;;
3085;SDS011;52812;48.960;9.108;2024-03-25T04:28:13;8.43;;;3.43;;
3085;SDS011;52812;48.960;9.108;2024-03-25T04:30:39;6.10;;;3.10;;
3085;SDS011;52812;48.960;9.108;2024-03-25T04:33:05;7.90;;;3.73;;
3085;SDS011;52812;48.960;9.108;2024-03-25T04:35:33;3.90;;;2.97;;
3085;SDS011;52812;48.960;9.108;2024-03-25T04:38:00;6.20;;;3.37;;
3085;SDS011;52812;48.960;9.108;2024-03-25T04:40:25;6.07;;;3.73;;
3085;SDS011;52812;48.960;9.108;2024-03-25T04:42:51;5.87;;;3.60;;
3085;SDS011;52812;48.960;9.108;2024-03-25T04:45:17;5.80;;;3.20;;
3085;SDS011;52812;48.960;9.108;2024-03-25T04:47:42;9.43;;;3.90;;
3085;SDS011;52812;48.960;9.108;2024-03-25T04:50:08;5.40;;;3.30;;
3085;SDS011;52812;48.960;9.108;2024-03-25T04:52:34;5.43;;;3.50;;
3085;SDS011;52812;48.960;9.108;2024-03-25T04:55:00;4.53;;;3.50;;
3085;SDS011;52812;48.960;9.108;2024-03-25T04:57:25;5.30;;;3.30;;
3085;SDS011;52812;48.960;9.108;2024-03-25T04:59:51;5.50;;;3.53;;
3085;SDS011;52812;48.960;9.108;2024-03-25T05:02:17;7.07;;;3.50;;
3085;SDS011;52812;48.960;9.108;2024-03-25T05:04:42;10.73;;;3.77;;
3085;SDS011;52812;48.960;9.108;2024-03-25T05:07:08;10.67;;;3.90;;
3085;SDS011;52812;48.960;9.108;2024-03-25T05:09:33;7.13;;;4.03;;
3085;SDS011;52812;48.960;9.108;2024-03-25T05:11:59;4.23;;;3.40;;
3085;SDS011;52812;48.960;9.108;2024-03-25T05:14:25;6.80;;;4.20;;
3085;SDS011;52812;48.960;9.108;2024-03-25T05:16:51;6.30;;;3.93;;
3085;SDS011;52812;48.960;9.108;2024-03-25T05:19:17;11.60;;;4.10;;
3085;SDS011;52812;48.960;9.108;2024-03-25T05:21:43;6.23;;;3.53;;
3085;SDS011;52812;48.960;9.108;2024-03-25T05:24:09;9.67;;;4.17;;
3085;SDS011;52812;48.960;9.108;2024-03-25T05:26:35;7.10;;;3.97;;
3085;SDS011;52812;48.960;9.108;2024-03-25T05:29:01;5.43;;;3.53;;
3085;SDS011;52812;48.960;9.108;2024-03-25T05:31:27;8.43;;;3.60;;
3085;SDS011;52812;48.960;9.108;2024-03-25T05:33:59;5.67;;;3.80;;
3085;SDS011;52812;48.960;9.108;2024-03-25T05:36:27;4.93;;;3.43;;
3085;SDS011;52812;48.960;9.108;2024-03-25T05:38:53;6.73;;;4.10;;
3085;SDS011;52812;48.960;9.108;2024-03-25T05:41:19;6.53;;;3.63;;
3085;SDS011;52812;48.960;9.108;2024-03-25T05:43:45;14.63;;;4.23;;
3085;SDS011;52812;48.960;9.108;2024-03-25T05:46:10;5.10;;;3.70;;
3085;SDS011;52812;48.960;9.108;2024-03-25T05:48:39;7.93;;;4.33;;
3085;SDS011;52812;48.960;9.108;2024-03-25T05:51:05;5.83;;;4.33;;
3085;SDS011;52812;48.960;9.108;2024-03-25T05:53:32;9.33;;;7.50;;
3085;SDS011;52812;48.960;9.108;2024-03-25T05:55:58;8.63;;;5.93;;
3085;SDS011;52812;48.960;9.108;2024-03-25T05:58:24;10.27;;;5.23;;
3085;SDS011;52812;48.960;9.108;2024-03-25T06:00:50;8.43;;;5.17;;
3085;SDS011;52812;48.960;9.108;2024-03-25T06:03:18;5.77;;;4.60;;
3085;SDS011;52812;48.960;9.108;2024-03-25T06:05:43;7.87;;;4.27;;
3085;SDS011;52812;48.960;9.108;2024-03-25T06:08:09;5.80;;;4.07;;
3085;SDS011;52812;48.960;9.108;2024-03-25T06:10:43;6.67;;;3.47;;
3085;SDS011;52812;48.960;9.108;2024-03-25T06:13:09;5.97;;;3.67;;
3085;SDS011;52812;48.960;9.108;2024-03-25T06:15:35;6.27;;;4.00;;
3085;SDS011;52812;48.960;9.108;2024-03-25T06:18:00;8.07;;;3.67;;
3085;SDS011;52812;48.960;9.108;2024-03-25T06:20:26;4.70;;;3.30;;
3085;SDS011;52812;48.960;9.108;2024-03-25T06:22:52;5.43;;;3.73;;
3085;SDS011;52812;48.960;9.108;2024-03-25T06:25:17;7.67;;;3.30;;
3085;SDS011;52812;48.960;9.108;2024-03-25T06:27:43;4.80;;;3.20;;
3085;SDS011;52812;48.960;9.108;2024-03-25T06:30:09;4.60;;;3.13;;
3085;SDS011;52812;48.960;9.108;2024-03-25T06:33:05;7.13;;;3.40;;
3085;SDS011;52812;48.960;9.108;2024-03-25T06:35:49;5.70;;;3.27;;
3085;SDS011;52812;48.960;9.108;2024-03-25T06:38:17;6.63;;;3.30;;
3085;SDS011;52812;48.960;9.108;2024-03-25T06:40:42;3.90;;;3.30;;
3085;SDS011;52812;48.960;9.108;2024-03-25T06:43:09;6.27;;;3.70;;
3085;SDS011;52812;48.960;9.108;2024-03-25T06:45:35;6.83;;;3.57;;
3085;SDS011;52812;48.960;9.108;2024-03-25T06:48:01;3.80;;;3.17;;
3085;SDS011;52812;48.960;9.108;2024-03-25T06:50:26;5.10;;;3.73;;
3085;SDS011;52812;48.960;9.108;2024-03-25T06:52:52;4.40;;;2.97;;
3085;SDS011;52812;48.960;9.108;2024-03-25T06:55:18;4.90;;;3.30;;
3085;SDS011;52812;48.960;9.108;2024-03-25T06:57:47;6.77;;;3.33;;
3085;SDS011;52812;48.960;9.108;2024-03-25T07:00:13;3.63;;;3.03;;
3085;SDS011;52812;48.960;9.108;2024-03-25T07:02:39;4.70;;;3.20;;
3085;SDS011;52812;48.960;9.108;2024-03-25T07:05:06;4.83;;;3.50;;
3085;SDS011;52812;48.960;9.108;2024-03-25T07:07:32;4.30;;;3.90;;
3085;SDS011;52812;48.960;9.108;2024-03-25T07:09:59;5.77;;;2.90;;
3085;SDS011;52812;48.960;9.108;2024-03-25T07:12:25;4.00;;;3.30;;
3085;SDS011;52812;48.960;9.108;2024-03-25T07:14:50;5.90;;;3.10;;
3085;SDS011;52812;48.960;9.108;2024-03-25T07:17:16;5.87;;;3.30;;
3085;SDS011;52812;48.960;9.108;2024-03-25T07:19:41;6.43;;;3.90;;
3085;SDS011;52812;48.960;9.108;2024-03-25T07:22:08;6.23;;;3.47;;
3085;SDS011;52812;48.960;9.108;2024-03-25T07:24:34;7.70;;;3.10;;
3085;SDS011;52812;48.960;9.108;2024-03-25T07:26:59;6.70;;;3.97;;
3085;SDS011;52812;48.960;9.108;2024-03-25T07:29:25;4.90;;;3.43;;
3085;SDS011;52812;48.960;9.108;2024-03-25T07:31:51;7.50;;;3.60;;
3085;SDS011;52812;48.960;9.108;2024-03-25T07:34:16;7.27;;;3.87;;
3085;SDS011;52812;48.960;9.108;2024-03-25T07:36:42;5.03;;;4.53;;
3085;SDS011;52812;48.960;9.108;2024-03-25T07:39:07;5.20;;;3.33;;
3085;SDS011;52812;48.960;9.108;2024-03-25T07:41:36;5.90;;;3.50;;
3085;SDS011;52812;48.960;9.108;2024-03-25T07:44:02;6.20;;;3.60;;
3085;SDS011;52812;48.960;9.108;2024-03-25T07:46:29;5.07;;;3.53;;
3085;SDS011;52812;48.960;9.108;2024-03-25T07:48:55;5.27;;;2.90;;
3085;SDS011;52812;48.960;9.108;2024-03-25T07:51:21;6.50;;;2.70;;
3085;SDS011;52812;48.960;9.108;2024-03-25T07:53:47;3.43;;;2.37;;
3085;SDS011;52812;48.960;9.108;2024-03-25T07:56:14;5.13;;;2.67;;
3085;SDS011;52812;48.960;9.108;2024-03-25T07:58:40;5.73;;;2.30;;
3085;SDS011;52812;48.960;9.108;2024-03-25T08:01:06;5.60;;;2.63;;
3085;SDS011;52812;48.960;9.108;2024-03-25T08:03:31;6.30;;;2.50;;
3085;SDS011;52812;48.960;9.108;2024-03-25T08:05:58;6.83;;;2.80;;
3085;SDS011;52812;48.960;9.108;2024-03-25T08:08:24;4.30;;;2.40;;
3085;SDS011;52812;48.960;9.108;2024-03-25T08:10:49;3.83;;;2.17;;
3085;SDS011;52812;48.960;9.108;2024-03-25T08:13:17;4.53;;;2.67;;
3085;SDS011;52812;48.960;9.108;2024-03-25T08:15:45;3.40;;;2.20;;
3085;SDS011;52812;48.960;9.108;2024-03-25T08:18:10;4.27;;;2.30;;
3085;SDS011;52812;48.960;9.108;2024-03-25T08:20:36;3.47;;;2.57;;
3085;SDS011;52812;48.960;9.108;2024-03-25T08:23:02;5.90;;;2.07;;
3085;SDS011;52812;48.960;9.108;2024-03-25T08:25:28;3.80;;;1.93;;
3085;SDS011;52812;48.960;9.108;2024-03-25T08:27:54;4.03;;;2.20;;
3085;SDS011;52812;48.960;9.108;2024-03-25T08:30:20;6.20;;;2.13;;
3085;SDS011;52812;48.960;9.108;2024-03-25T08:32:45;5.30;;;2.10;;
3085;SDS011;52812;48.960;9.108;2024-03-25T08:35:11;3.10;;;2.00;;
3085;SDS011;52812;48.960;9.108;2024-03-25T08:37:37;3.10;;;2.30;;
3085;SDS011;52812;48.960;9.108;2024-03-25T08:40:03;3.47;;;3.07;;
3085;SDS011;52812;48.960;9.108;2024-03-25T08:42:30;4.03;;;1.90;;
3085;SDS011;52812;48.960;9.108;2024-03-25T08:44:55;5.37;;;2.73;;
3085;SDS011;52812;48.960;9.108;2024-03-25T08:47:21;4.27;;;2.20;;
3085;SDS011;52812;48.960;9.108;2024-03-25T08:49:47;4.13;;;2.10;;
3085;SDS011;52812;48.960;9.108;2024-03-25T08:52:13;5.90;;;2.13;;
3085;SDS011;52812;48.960;9.108;2024-03-25T08:54:38;3.47;;;2.00;;
3085;SDS011;52812;48.960;9.108;2024-03-25T08:57:04;4.33;;;2.10;;
3085;SDS011;52812;48.960;9.108;2024-03-25T08:59:29;3.90;;;2.10;;
3085;SDS011;52812;48.960;9.108;2024-03-25T09:01:55;3.63;;;2.20;;
3085;SDS011;52812;48.960;9.108;2024-03-25T09:04:21;5.27;;;3.10;;
3085;SDS011;52812;48.960;9.108;2024-03-25T09:06:46;4.00;;;2.47;;
3085;SDS011;52812;48.960;9.108;2024-03-25T09:09:12;4.00;;;2.27;;
3085;SDS011;52812;48.960;9.108;2024-03-25T09:11:56;4.17;;;2.37;;
3085;SDS011;52812;48.960;9.108;2024-03-25T09:14:22;5.43;;;2.10;;
3085;SDS011;52812;48.960;9.108;2024-03-25T09:16:48;2.27;;;1.80;;
3085;SDS011;52812;48.960;9.108;2024-03-25T09:19:13;2.70;;;2.10;;
3085;SDS011;52812;48.960;9.108;2024-03-25T09:21:39;2.87;;;2.00;;
3085;SDS011;52812;48.960;9.108;2024-03-25T09:24:04;2.90;;;2.50;;
3085;SDS011;52812;48.960;9.108;2024-03-25T09:26:30;4.60;;;2.50;;
3085;SDS011;52812;48.960;9.108;2024-03-25T09:28:56;2.90;;;1.90;;
3085;SDS011;52812;48.960;9.108;2024-03-25T09:31:21;5.80;;;2.27;;
3085;SDS011;52812;48.960;9.108;2024-03-25T09:33:47;4.00;;;2.37;;
3085;SDS011;52812;48.960;9.108;2024-03-25T09:36:13;3.60;;;2.20;;
3085;SDS011;52812;48.960;9.108;2024-03-25T09:38:38;3.67;;;1.90;;
3085;SDS011;52812;48.960;9.108;2024-03-25T09:41:04;4.00;;;2.17;;
3085;SDS011;52812;48.960;9.108;2024-03-25T09:43:33;2.90;;;1.93;;
3085;SDS011;52812;48.960;9.108;2024-03-25T09:46:08;3.90;;;1.90;;
3085;SDS011;52812;48.960;9.108;2024-03-25T09:48:34;3.27;;;1.90;;
3085;SDS011;52812;48.960;9.108;2024-03-25T09:51:01;3.67;;;2.00;;
3085;SDS011;52812;48.960;9.108;2024-03-25T09:53:28;2.67;;;1.90;;
3085;SDS011;52812;48.960;9.108;2024-03-25T09:55:54;4.63;;;2.20;;
3085;SDS011;52812;48.960;9.108;2024-03-25T09:58:21;4.77;;;2.00;;
3085;SDS011;52812;48.960;9.108;2024-03-25T10:00:49;2.50;;;2.07;;
3085;SDS011;52812;48.960;9.108;2024-03-25T10:03:14;3.00;;;2.00;;
3085;SDS011;52812;48.960;9.108;2024-03-25T10:05:40;3.30;;;1.97;;
3085;SDS011;52812;48.960;9.108;2024-03-25T10:08:06;2.23;;;2.03;;
3085;SDS011;52812;48.960;9.108;2024-03-25T10:10:36;4.93;;;2.10;;
3085;SDS011;52812;48.960;9.108;2024-03-25T10:13:03;2.20;;;1.80;;
3085;SDS011;52812;48.960;9.108;2024-03-25T10:15:30;3.23;;;1.63;;
3085;SDS011;52812;48.960;9.108;2024-03-25T10:17:57;2.77;;;1.83;;
3085;SDS011;52812;48.960;9.108;2024-03-25T10:20:22;3.53;;;2.47;;
3085;SDS011;52812;48.960;9.108;2024-03-25T10:22:49;3.80;;;2.10;;
3085;SDS011;52812;48.960;9.108;2024-03-25T10:25:21;2.77;;;2.00;;
3085;SDS011;52812;48.960;9.108;2024-03-25T10:28:00;3.80;;;2.00;;
3085;SDS011;52812;48.960;9.108;2024-03-25T10:30:27;3.33;;;1.80;;
3085;SDS011;52812;48.960;9.108;2024-03-25T10:33:00;2.77;;;1.77;;
3085;SDS011;52812;48.960;9.108;2024-03-25T10:35:31;2.80;;;2.10;;
3085;SDS011;52812;48.960;9.108;2024-03-25T10:38:00;5.13;;;2.30;;
3085;SDS011;52812;48.960;9.108;2024-03-25T10:40:34;3.33;;;1.73;;
3085;SDS011;52812;48.960;9.108;2024-03-25T10:43:05;2.90;;;1.93;;
3085;SDS011;52812;48.960;9.108;2024-03-25T10:45:37;2.33;;;1.70;;
3085;SDS011;52812;48.960;9.108;2024-03-25T10:48:09;3.30;;;2.00;;
3085;SDS011;52812;48.960;9.108;2024-03-25T10:50:42;2.33;;;1.73;;
3085;SDS011;52812;48.960;9.108;2024-03-25T10:53:10;5.10;;;2.13;;
3085;SDS011;52812;48.960;9.108;2024-03-25T10:55:36;3.40;;;2.10;;
3085;SDS011;52812;48.960;9.108;2024-03-25T10:58:03;5.80;;;2.30;;
3085;SDS011;52812;48.960;9.108;2024-03-25T11:00:29;3.13;;;2.03;;
3085;SDS011;52812;48.960;9.108;2024-03-25T11:02:56;2.50;;;1.90;;
3085;SDS011;52812;48.960;9.108;2024-03-25T11:05:22;3.40;;;2.00;;
3085;SDS011;52812;48.960;9.108;2024-03-25T11:07:48;2.40;;;2.00;;
3085;SDS011;52812;48.960;9.108;2024-03-25T11:10:14;3.03;;;1.93;;
3085;SDS011;52812;48.960;9.108;2024-03-25T11:12:41;4.27;;;2.03;;
3085;SDS011;52812;48.960;9.108;2024-03-25T11:15:08;2.13;;;1.93;;
3085;SDS011;52812;48.960;9.108;2024-03-25T11:17:34;2.13;;;1.70;;
3085;SDS011;52812;48.960;9.108;2024-03-25T11:20:11;2.80;;;2.00;;
3085;SDS011;52812;48.960;9.108;2024-03-25T11:22:48;3.80;;;1.70;;
3085;SDS011;52812;48.960;9.108;2024-03-25T11:25:18;3.93;;;1.90;;
3085;SDS011;52812;48.960;9.108;2024-03-25T11:27:46;4.00;;;2.33;;
3085;SDS011;52812;48.960;9.108;2024-03-25T11:30:13;2.17;;;1.83;;
3085;SDS011;52812;48.960;9.108;2024-03-25T11:32:46;2.80;;;2.13;;
3085;SDS011;52812;48.960;9.108;2024-03-25T11:35:19;3.50;;;2.10;;
3085;SDS011;52812;48.960;9.108;2024-03-25T11:37:45;5.50;;;1.90;;
3085;SDS011;52812;48.960;9.108;2024-03-25T11:40:11;2.20;;;1.70;;
3085;SDS011;52812;48.960;9.108;2024-03-25T11:42:39;4.10;;;2.60;;
3085;SDS011;52812;48.960;9.108;2024-03-25T11:45:06;3.80;;;2.20;;
3085;SDS011;52812;48.960;9.108;2024-03-25T11:47:32;3.93;;;1.93;;
3085;SDS011;52812;48.960;9.108;2024-03-25T11:49:59;2.33;;;2.13;;
3085;SDS011;52812;48.960;9.108;2024-03-25T11:52:29;3.13;;;1.87;;
3085;SDS011;52812;48.960;9.108;2024-03-25T11:54:55;3.87;;;2.10;;
3085;SDS011;52812;48.960;9.108;2024-03-25T11:57:22;2.43;;;1.93;;
3085;SDS011;52812;48.960;9.108;2024-03-25T11:59:48;2.40;;;2.10;;
3085;SDS011;52812;48.960;9.108;2024-03-25T12:02:17;2.60;;;1.87;;
3085;SDS011;52812;48.960;9.108;2024-03-25T12:04:43;3.40;;;1.97;;
3085;SDS011;52812;48.960;9.108;2024-03-25T12:07:13;4.30;;;2.33;;
3085;SDS011;52812;48.960;9.108;2024-03-25T12:09:39;3.30;;;2.17;;
3085;SDS011;52812;48.960;9.108;2024-03-25T12:12:24;2.40;;;2.20;;
3085;SDS011;52812;48.960;9.108;2024-03-25T12:14:50;3.60;;;2.13;;
3085;SDS011;52812;48.960;9.108;2024-03-25T12:17:18;3.23;;;2.00;;
3085;SDS011;52812;48.960;9.108;2024-03-25T12:19:44;2.60;;;2.07;;
3085;SDS011;52812;48.960;9.108;2024-03-25T12:22:10;2.57;;;2.30;;
3085;SDS011;52812;48.960;9.108;2024-03-25T12:24:36;3.93;;;2.70;;
3085;SDS011;52812;48.960;9.108;2024-03-25T12:27:04;4.10;;;2.53;;
3085;SDS011;52812;48.960;9.108;2024-03-25T12:29:30;4.03;;;2.20;;
3085;SDS011;52812;48.960;9.108;2024-03-25T12:31:56;2.97;;;2.57;;
3085;SDS011;52812;48.960;9.108;2024-03-25T12:34:22;5.47;;;2.40;;
3085;SDS011;52812;48.960;9.108;2024-03-25T12:36:50;3.73;;;2.37;;
3085;SDS011;52812;48.960;9.108;2024-03-25T12:39:16;4.90;;;2.60;;
3085;SDS011;52812;48.960;9.108;2024-03-25T12:41:44;3.80;;;2.40;;
3085;SDS011;52812;48.960;9.108;2024-03-25T12:44:11;4.40;;;2.30;;
3085;SDS011;52812;48.960;9.108;2024-03-25T12:46:37;3.70;;;2.30;;
3085;SDS011;52812;48.960;9.108;2024-03-25T12:49:04;3.67;;;2.50;;
3085;SDS011;52812;48.960;9.108;2024-03-25T12:51:31;4.73;;;2.40;;
3085;SDS011;52812;48.960;9.108;2024-03-25T12:53:56;5.57;;;2.60;;
3085;SDS011;52812;48.960;9.108;2024-03-25T12:56:22;2.50;;;2.10;;
3085;SDS011;52812;48.960;9.108;2024-03-25T12:58:49;4.00;;;2.40;;
3085;SDS011;52812;48.960;9.108;2024-03-25T13:01:14;2.40;;;2.10;;
3085;SDS011;52812;48.960;9.108;2024-03-25T13:03:40;3.40;;;2.73;;
3085;SDS011;52812;48.960;9.108;2024-03-25T13:06:07;5.60;;;2.70;;
3085;SDS011;52812;48.960;9.108;2024-03-25T13:08:33;3.50;;;2.67;;
3085;SDS011;52812;48.960;9.108;2024-03-25T13:10:58;3.60;;;2.50;;
3085;SDS011;52812;48.960;9.108;2024-03-25T13:13:24;3.50;;;2.80;;
3085;SDS011;52812;48.960;9.108;2024-03-25T13:15:50;4.37;;;2.93;;
3085;SDS011;52812;48.960;9.108;2024-03-25T13:18:16;4.17;;;2.80;;
3085;SDS011;52812;48.960;9.108;2024-03-25T13:20:43;3.53;;;2.60;;
3085;SDS011;52812;48.960;9.108;2024-03-25T13:23:09;3.00;;;2.57;;
3085;SDS011;52812;48.960;9.108;2024-03-25T13:25:34;4.07;;;2.50;;
3085;SDS011;52812;48.960;9.108;2024-03-25T13:28:00;3.37;;;2.20;;
3085;SDS011;52812;48.960;9.108;2024-03-25T13:30:26;3.73;;;2.87;;
3085;SDS011;52812;48.960;9.108;2024-03-25T13:32:52;4.60;;;2.80;;
3085;SDS011;52812;48.960;9.108;2024-03-25T13:35:18;3.43;;;2.67;;
3085;SDS011;52812;48.960;9.108;2024-03-25T13:37:43;4.60;;;2.83;;
3085;SDS011;52812;48.960;9.108;2024-03-25T13:40:09;4.23;;;2.70;;
3085;SDS011;52812;48.960;9.108;2024-03-25T13:42:36;5.50;;;2.63;;
3085;SDS011;52812;48.960;9.108;2024-03-25T13:45:02;3.13;;;2.27;;
3085;SDS011;52812;48.960;9.108;2024-03-25T13:47:29;5.50;;;2.97;;
3085;SDS011;52812;48.960;9.108;2024-03-25T13:50:04;3.00;;;2.60;;
3085;SDS011;52812;48.960;9.108;2024-03-25T13:52:34;4.97;;;3.27;;
3085;SDS011;52812;48.960;9.108;2024-03-25T13:55:00;6.50;;;3.23;;
3085;SDS011;52812;48.960;9.108;2024-03-25T13:57:28;4.63;;;2.73;;
3085;SDS011;52812;48.960;9.108;2024-03-25T13:59:55;3.70;;;2.60;;
3085;SDS011;52812;48.960;9.108;2024-03-25T14:02:21;4.27;;;2.97;;
3085;SDS011;52812;48.960;9.108;2024-03-25T14:04:47;3.60;;;2.63;;
3085;SDS011;52812;48.960;9.108;2024-03-25T14:07:13;2.83;;;2.43;;
3085;SDS011;52812;48.960;9.108;2024-03-25T14:09:38;4.13;;;2.60;;
3085;SDS011;52812;48.960;9.108;2024-03-25T14:12:04;3.40;;;2.73;;
3085;SDS011;52812;48.960;9.108;2024-03-25T14:14:31;3.10;;;2.70;;
3085;SDS011;52812;48.960;9.108;2024-03-25T14:16:56;5.13;;;3.00;;
3085;SDS011;52812;48.960;9.108;2024-03-25T14:19:22;4.13;;;2.70;;
3085;SDS011;52812;48.960;9.108;2024-03-25T14:21:48;4.17;;;2.70;;
3085;SDS011;52812;48.960;9.108;2024-03-25T14:24:15;2.33;;;2.13;;
3085;SDS011;52812;48.960;9.108;2024-03-25T14:26:40;3.90;;;3.23;;
3085;SDS011;52812;48.960;9.108;2024-03-25T14:29:06;3.97;;;2.70;;
3085;SDS011;52812;48.960;9.108;2024-03-25T14:31:31;3.60;;;2.50;;
3085;SDS011;52812;48.960;9.108;2024-03-25T14:33:58;3.33;;;2.53;;
3085;SDS011;52812;48.960;9.108;2024-03-25T14:36:24;3.20;;;2.57;;
3085;SDS011;52812;48.960;9.108;2024-03-25T14:38:50;4.70;;;2.80;;
3085;SDS011;52812;48.960;9.108;2024-03-25T14:41:19;4.70;;;2.67;;
3085;SDS011;52812;48.960;9.108;2024-03-25T14:43:45;3.73;;;2.37;;
3085;SDS011;52812;48.960;9.108;2024-03-25T14:46:13;6.80;;;2.50;;
3085;SDS011;52812;48.960;9.108;2024-03-25T14:48:39;2.60;;;2.13;;
3085;SDS011;52812;48.960;9.108;2024-03-25T14:51:04;4.73;;;2.70;;
3085;SDS011;52812;48.960;9.108;2024-03-25T14:53:30;2.80;;;2.43;;
3085;SDS011;52812;48.960;9.108;2024-03-25T14:55:56;5.13;;;2.60;;